Time;durP1;ratioP1;P1;durP2;ratioP2;P2;SDS_P1;SDS_P2;PMS_P1;PMS_P2;Temp;Humidity;BMP_temperature;BMP_pressure;BME280_temperature;BME280_humidity;BME280_pressure;Samples;Min_cycle;Max_cycle;Signal;HPM_P1;HPM_P2
2022/02/02 00:02:19;;;;;;;29.25;5.60;;;;;;;7.60;100.00;101723.69;5032296;28;20091;-78
2022/02/02 00:04:52;;;;;;;24.55;4.53;;;;;;;7.49;100.00;101715.75;5032915;28;20057;-79
2022/02/02 00:07:32;;;;;;;24.88;5.97;;;;;;;7.49;100.00;101718.41;5032417;28;20053;-78
2022/02/02 00:10:09;;;;;;;24.30;4.65;;;;;;;7.43;100.00;101724.63;5032689;28;20076;-78
2022/02/02 00:12:43;;;;;;;25.25;5.50;;;;;;;7.39;100.00;101716.69;5033295;28;20049;-79
2022/02/02 00:15:41;;;;;;;26.77;5.43;;;;;;;7.41;100.00;101712.28;5032481;28;20544;-78
2022/02/02 00:18:32;;;;;;;26.10;6.15;;;;;;;7.30;100.00;101704.34;5032414;28;20487;-79
2022/02/02 00:21:04;;;;;;;23.20;4.90;;;;;;;7.40;100.00;101714.03;5032194;28;20081;-79
2022/02/02 00:23:37;;;;;;;28.42;4.82;;;;;;;7.33;100.00;101711.44;5032412;28;20076;-79
2022/02/02 00:26:11;;;;;;;36.20;5.10;;;;;;;7.33;100.00;101707.00;5032537;28;20148;-79
2022/02/02 00:29:07;;;;;;;28.48;6.35;;;;;;;7.41;100.00;101712.28;5032755;28;20179;-78
2022/02/02 00:31:44;;;;;;;20.98;4.82;;;;;;;7.47;100.00;101713.13;5033436;28;20045;-78
2022/02/02 00:34:16;;;;;;;24.88;6.72;;;;;;;7.36;100.00;101725.56;5032512;28;20532;-77
2022/02/02 00:36:49;;;;;;;25.83;6.25;;;;;;;7.36;100.00;101727.34;5031921;28;20045;-79
2022/02/02 00:39:17;;;;;;;28.13;5.57;;;;;;;7.29;100.00;101711.44;5032397;28;20137;-78
2022/02/02 00:41:46;;;;;;;35.22;6.20;;;;;;;7.26;100.00;101745.09;5032350;28;20095;-78
2022/02/02 00:44:17;;;;;;;29.98;6.88;;;;;;;7.30;100.00;101741.50;5032086;28;20049;-80
2022/02/02 00:46:46;;;;;;;24.35;5.57;;;;;;;7.33;100.00;101737.97;5032304;28;20103;-78
2022/02/02 00:49:14;;;;;;;32.90;6.47;;;;;;;7.31;100.00;101718.53;5032269;28;20099;-80
2022/02/02 00:51:45;;;;;;;27.58;5.20;;;;;;;7.25;100.00;101720.31;5032274;28;20448;-80
2022/02/02 00:54:15;;;;;;;24.58;6.22;;;;;;;7.25;100.00;101725.63;5032959;28;20437;-80
2022/02/02 00:56:44;;;;;;;31.40;5.50;;;;;;;7.22;100.00;101735.34;5032286;28;20081;-79
2022/02/02 00:59:14;;;;;;;22.92;5.28;;;;;;;7.17;100.00;101737.13;5032085;28;20103;-77
2022/02/02 01:01:42;;;;;;;28.42;5.43;;;;;;;7.27;100.00;101730.91;5031939;28;20049;-79
2022/02/02 01:04:10;;;;;;;40.00;6.07;;;;;;;7.21;100.00;101744.22;5032148;28;20068;-80
2022/02/02 01:06:42;;;;;;;28.77;6.25;;;;;;;7.28;100.00;101733.56;5032020;28;20144;-78
2022/02/02 01:09:21;;;;;;;23.10;5.50;;;;;;;7.29;100.00;101742.41;5032351;28;20049;-79
2022/02/02 01:12:20;;;;;;;21.83;5.35;;;;;;;7.28;100.00;101748.59;5035978;28;20129;-78
2022/02/02 01:15:48;;;;;;;28.98;4.80;;;;;;;7.27;100.00;101741.53;5035806;28;20053;-79
2022/02/02 01:18:23;;;;;;;25.15;4.85;;;;;;;7.33;100.00;101751.25;5035708;28;20057;-78
2022/02/02 01:21:00;;;;;;;26.38;6.18;;;;;;;7.24;100.00;101757.50;5035507;28;20056;-70
2022/02/02 01:28:58;;;;;;;22.75;5.15;;;;;;;7.11;100.00;101736.28;5034947;28;20049;-70
2022/02/02 01:31:28;;;;;;;29.63;5.72;;;;;;;7.20;100.00;101729.16;5034389;28;20099;-70
2022/02/02 01:33:56;;;;;;;34.47;6.07;;;;;;;7.18;100.00;101730.94;5034778;28;20084;-70
2022/02/02 01:36:24;;;;;;;31.70;6.13;;;;;;;7.19;100.00;101752.19;5035051;28;20508;-70
2022/02/02 01:38:55;;;;;;;26.83;6.13;;;;;;;7.18;100.00;101745.09;5034019;28;20061;-71
2022/02/02 01:41:28;;;;;;;26.25;5.68;;;;;;;7.13;100.00;101738.91;5034289;28;20060;-70
2022/02/02 01:44:08;;;;;;;;;;;;;;;7.13;100.00;101764.59;5033571;28;20053;-70
2022/02/02 01:46:38;;;;;;;31.77;5.40;;;;;;;7.06;100.00;101764.59;5034558;28;19924;-70
2022/02/02 01:55:03;;;;;;;24.65;5.22;;;;;;;7.05;100.00;101794.69;5034071;28;20053;-70
2022/02/02 01:57:57;;;;;;;24.83;5.90;;;;;;;6.99;100.00;101800.00;5017368;28;20139;-70
2022/02/02 02:00:26;;;;;;;31.40;5.93;;;;;;;6.98;100.00;101800.91;5034190;28;20112;-70
2022/02/02 02:02:56;;;;;;;35.38;7.45;;;;;;;7.00;100.00;101804.44;5034168;28;20049;-70
2022/02/02 02:05:25;;;;;;;26.75;5.18;;;;;;;6.99;100.00;101815.06;5034252;28;20067;-70
2022/02/02 02:07:53;;;;;;;23.85;4.47;;;;;;;6.98;100.00;101803.56;5034552;28;20053;-70
2022/02/02 02:10:23;;;;;;;35.45;7.32;;;;;;;7.03;100.00;101807.09;5033811;28;20132;-70
2022/02/02 02:12:56;;;;;;;30.83;5.68;;;;;;;7.07;100.00;101807.97;5032548;28;20049;-70
2022/02/02 02:15:28;;;;;;;39.65;6.47;;;;;;;7.07;100.00;101823.88;5033769;28;20612;-70
2022/02/02 02:17:59;;;;;;;31.10;5.97;;;;;;;7.08;100.00;101802.66;5034286;28;20087;-79
2022/02/02 02:20:27;;;;;;;31.45;6.85;;;;;;;7.17;100.00;101809.72;5035016;28;20434;-79
2022/02/02 02:22:56;;;;;;;20.60;5.10;;;;;;;7.15;100.00;101792.91;5034084;28;20077;-80
2022/02/02 02:25:27;;;;;;;29.08;6.43;;;;;;;7.22;100.00;101796.41;5034299;28;20071;-78
2022/02/02 02:28:03;;;;;;;28.95;7.28;;;;;;;7.17;100.00;101793.78;5034688;28;20464;-78
2022/02/02 02:30:43;;;;;;;27.35;5.78;;;;;;;7.17;100.00;101790.22;5034627;28;20450;-78
2022/02/02 02:36:22;;;;;;;33.65;6.35;;;;;;;7.19;100.00;101785.81;5030951;28;20116;-70
2022/02/02 02:55:54;;;;;;;33.58;5.22;;;;;;;7.28;100.00;101770.72;5033069;28;20442;-70
2022/02/02 02:58:40;;;;;;;25.23;5.22;;;;;;;7.29;100.00;101769.84;5032873;28;20064;-71
2022/02/02 03:01:20;;;;;;;27.83;6.18;;;;;;;7.31;100.00;101771.63;5032647;28;20049;-70
2022/02/02 03:30:00;;;;;;;33.60;5.47;;;;;;;7.23;100.00;101779.59;5032796;28;20045;-72
2022/02/02 03:49:12;;;;;;;26.77;5.00;;;;;;;7.25;100.00;101777.81;5022698;28;20056;-70
2022/02/02 03:50:07;;;;;;;24.20;5.55;;;;;;;7.33;100.00;101791.94;5032075;28;20104;-71
2022/02/02 03:55:34;;;;;;;28.90;5.07;;;;;;;7.31;100.00;101790.22;5032068;28;20057;-70
2022/02/02 03:58:17;;;;;;;28.48;6.53;;;;;;;7.27;100.00;101791.97;5032212;28;20099;-70
2022/02/02 04:04:12;;;;;;;32.17;6.22;;;;;;;7.27;100.00;101799.94;5031782;28;20054;-70
2022/02/02 04:06:56;;;;;;;37.85;5.70;;;;;;;7.26;100.00;101801.72;5031919;28;20095;-70
2022/02/02 04:09:25;;;;;;;26.77;5.95;;;;;;;7.26;100.00;101811.44;5016416;28;20053;-70
2022/02/02 04:12:01;;;;;;;26.35;5.40;;;;;;;7.29;100.00;101808.78;5032000;28;20128;-70
2022/02/02 04:17:44;;;;;;;45.60;7.00;;;;;;;7.22;100.00;101812.34;5032368;28;20056;-69
2022/02/02 04:51:38;;;;;;;27.10;5.78;;;;;;;7.23;100.00;101819.41;5035744;28;20068;-79
2022/02/02 04:57:28;;;;;;;24.20;4.67;;;;;;;7.17;100.00;101838.91;5036081;28;20045;-79
2022/02/02 05:00:16;;;;;;;27.25;5.20;;;;;;;7.17;100.00;101848.63;5036017;28;20363;-79
2022/02/02 05:06:03;;;;;;;37.17;5.97;;;;;;;7.16;100.00;101847.75;5035642;28;20064;-79
2022/02/02 05:09:05;;;;;;;28.80;6.38;;;;;;;7.15;100.00;101842.44;5035424;28;20052;-79
2022/02/02 05:17:48;;;;;;;32.63;6.05;;;;;;;7.14;100.00;101846.00;5035337;28;20045;-78
2022/02/02 05:24:44;;;;;;;24.27;6.05;;;;;;;7.09;100.00;101849.53;5018029;28;20425;-78
2022/02/02 05:53:42;;;;;;;20.65;4.60;;;;;;;7.05;100.00;101884.06;5028225;28;20190;-79
2022/02/02 05:56:10;;;;;;;23.33;4.80;;;;;;;7.05;100.00;101876.09;5034815;28;20103;-78
2022/02/02 05:58:39;;;;;;;26.63;5.60;;;;;;;7.05;100.00;101884.94;5034965;28;20049;-78
2022/02/02 06:01:10;;;;;;;28.65;7.43;;;;;;;7.06;100.00;101881.38;5033895;28;20555;-79
2022/02/02 06:03:49;;;;;;;30.35;6.25;;;;;;;7.08;100.00;101890.25;5033705;28;20175;-79
2022/02/02 06:06:17;;;;;;;21.30;4.63;;;;;;;7.06;100.00;101885.81;5033029;28;20053;-79
2022/02/02 06:08:47;;;;;;;24.27;5.05;;;;;;;7.08;100.00;101886.69;5033100;28;20156;-79
2022/02/02 06:11:16;;;;;;;28.20;5.45;;;;;;;7.08;100.00;101890.25;5033612;28;20116;-79
2022/02/02 06:13:51;;;;;;;41.55;6.75;;;;;;;7.05;100.00;101890.25;5032923;28;20049;-79
2022/02/02 06:16:21;;;;;;;28.67;6.07;;;;;;;7.03;100.00;101899.97;5032807;28;20053;-70
2022/02/02 06:18:55;;;;;;;26.42;6.32;;;;;;;7.06;100.00;101897.28;5033041;28;20081;-71
2022/02/02 06:21:28;;;;;;;26.38;7.07;;;;;;;7.03;100.00;101905.28;5032266;28;20108;-71
2022/02/02 06:24:29;;;;;;;24.42;6.88;;;;;;;7.03;100.00;101897.31;5032559;28;20049;-71
2022/02/02 06:27:03;;;;;;;22.92;5.68;;;;;;;7.01;100.00;101908.81;5031348;28;20061;-71
2022/02/02 06:29:37;;;;;;;33.70;7.20;;;;;;;6.97;100.00;101915.00;5032246;28;20053;-70
2022/02/02 06:32:08;;;;;;;28.05;5.72;;;;;;;6.99;100.00;101910.59;5032085;28;20046;-70
2022/02/02 06:34:37;;;;;;;22.52;5.15;;;;;;;6.99;100.00;101922.06;5032817;28;20073;-78
2022/02/02 06:37:05;;;;;;;29.95;5.63;;;;;;;6.97;100.00;101910.59;5033634;28;20057;-79
2022/02/02 06:39:34;;;;;;;31.08;5.90;;;;;;;6.89;100.00;101915.88;5033152;28;20116;-79
2022/02/02 06:42:02;;;;;;;33.83;6.50;;;;;;;6.87;100.00;101922.94;5033080;28;20081;-78
2022/02/02 06:44:31;;;;;;;28.23;5.68;;;;;;;6.82;100.00;101932.69;5033651;28;20521;-78
2022/02/02 06:46:59;;;;;;;21.73;4.68;;;;;;;6.89;100.00;101936.22;5033599;28;20065;-80
2022/02/02 06:49:29;;;;;;;21.23;6.15;;;;;;;6.89;100.00;101933.56;5033857;28;20056;-79
2022/02/02 06:52:09;;;;;;;20.23;4.82;;;;;;;6.96;100.00;101932.69;5034284;28;20110;-79
2022/02/02 06:54:51;;;;;;;28.67;5.75;;;;;;;6.87;100.00;101925.59;5033379;28;20073;-80
2022/02/02 06:57:31;;;;;;;24.85;5.13;;;;;;;6.85;100.00;101923.84;5033569;28;20096;-80
2022/02/02 07:00:35;;;;;;;25.83;5.00;;;;;;;6.78;100.00;101930.03;4996107;28;1083508;-80
2022/02/02 07:06:21;;;;;;;;;;;;;;;6.82;100.00;101953.03;5035703;28;20049;-69
2022/02/02 07:09:06;;;;;;;19.50;5.53;;;;;;;6.85;100.00;101959.22;5033159;28;19968;-80
2022/02/02 07:11:51;;;;;;;23.23;4.40;;;;;;;6.94;100.00;101955.69;5034097;28;20093;-70
2022/02/02 07:14:28;;;;;;;22.95;4.63;;;;;;;6.97;100.00;101966.31;5034074;28;20461;-79
2022/02/02 07:17:11;;;;;;;28.80;5.63;;;;;;;7.04;100.00;101970.72;5034100;28;20399;-78
2022/02/02 07:20:12;;;;;;;16.73;3.85;;;;;;;7.09;100.00;101966.31;5034451;28;20472;-79
2022/02/02 07:23:18;;;;;;;16.75;4.38;;;;;;;7.04;100.00;101968.06;5033895;28;20068;-79
2022/02/02 07:26:10;;;;;;;26.33;4.45;;;;;;;7.06;100.00;101966.31;5033547;28;20101;-80
2022/02/02 07:28:44;;;;;;;23.00;4.30;;;;;;;7.09;100.00;101970.75;5034009;28;20152;-79
2022/02/02 07:31:31;;;;;;;26.15;5.35;;;;;;;7.09;100.00;101976.94;5034100;28;20056;-79
2022/02/02 07:34:09;;;;;;;21.40;4.65;;;;;;;7.09;100.00;101990.19;5033743;28;20136;-79
2022/02/02 07:36:44;;;;;;;20.35;5.20;;;;;;;7.13;100.00;101990.19;5034226;28;20076;-79
2022/02/02 07:39:14;;;;;;;18.02;4.75;;;;;;;7.11;100.00;101983.13;5034436;28;20108;-78
2022/02/02 07:42:10;;;;;;;19.77;4.20;;;;;;;7.12;100.00;101999.94;5034235;28;20132;-80
2022/02/02 07:44:40;;;;;;;19.42;3.72;;;;;;;7.08;100.00;101985.78;5034101;28;20081;-78
2022/02/02 07:47:10;;;;;;;16.33;4.13;;;;;;;7.08;100.00;101993.75;5033650;28;20048;-79
2022/02/02 07:50:06;;;;;;;19.05;4.50;;;;;;;7.05;100.00;101993.75;5033765;28;20059;-80
2022/02/02 07:53:06;;;;;;;20.70;4.60;;;;;;;7.06;100.00;102008.78;5033354;28;20056;-80
2022/02/02 07:56:01;;;;;;;17.58;3.83;;;;;;;7.09;100.00;102007.91;5033472;28;20397;-80
2022/02/02 07:59:10;;;;;;;18.08;4.38;;;;;;;7.11;100.00;102020.28;5033258;28;20132;-72
2022/02/02 08:01:42;;;;;;;16.30;4.38;;;;;;;7.13;100.00;102020.28;5032045;28;20091;-70
2022/02/02 08:04:12;;;;;;;19.52;4.55;;;;;;;7.19;100.00;102011.47;5032123;28;20049;-70
2022/02/02 08:07:05;;;;;;;14.90;4.32;;;;;;;7.17;100.00;102015.84;5032073;28;20461;-71
2022/02/02 08:09:41;;;;;;;18.75;4.72;;;;;;;7.18;100.00;102028.25;5032159;28;20053;-70
2022/02/02 08:12:17;;;;;;;19.52;5.25;;;;;;;7.19;100.00;102028.25;5032647;28;20096;-79
2022/02/02 08:14:52;;;;;;;20.48;5.05;;;;;;;7.24;100.00;102028.28;5032895;28;20136;-81
2022/02/02 08:17:20;;;;;;;19.95;4.97;;;;;;;7.24;100.00;102029.16;5033585;28;20057;-80
2022/02/02 08:19:51;;;;;;;19.00;5.00;;;;;;;7.24;100.00;102023.84;5032961;28;20057;-79
2022/02/02 08:22:19;;;;;;;16.15;4.05;;;;;;;7.24;100.00;102029.16;5032691;28;20081;-79
2022/02/02 08:24:48;;;;;;;20.15;5.47;;;;;;;7.23;100.00;102035.34;5032936;28;20504;-70
2022/02/02 08:27:20;;;;;;;14.35;4.68;;;;;;;7.26;100.00;102034.47;5032658;28;20521;-78
2022/02/02 08:29:48;;;;;;;17.58;4.70;;;;;;;7.27;100.00;102031.81;5033107;28;20053;-78
2022/02/02 08:32:16;;;;;;;18.20;4.93;;;;;;;7.29;100.00;102031.81;5031874;28;20103;-71
2022/02/02 08:34:48;;;;;;;11.60;4.65;;;;;;;7.31;100.00;102031.81;5032040;28;20416;-71
2022/02/02 08:37:17;;;;;;;16.92;5.00;;;;;;;7.34;100.00;102031.78;5030998;28;20069;-70
2022/02/02 08:40:23;;;;;;;18.77;4.20;;;;;;;7.31;100.00;102035.34;5032020;28;20079;-70
2022/02/02 08:42:53;;;;;;;18.05;5.13;;;;;;;7.38;100.00;102034.47;5032004;28;20059;-78
2022/02/02 08:45:25;;;;;;;16.30;4.88;;;;;;;7.39;100.00;102038.00;5032460;28;20112;-80
2022/02/02 08:47:58;;;;;;;19.58;4.82;;;;;;;7.37;100.00;102032.72;5032384;28;20467;-80
2022/02/02 08:50:30;;;;;;;21.90;5.07;;;;;;;7.39;100.00;102030.94;5032230;28;20502;-80
2022/02/02 08:53:08;;;;;;;16.60;4.38;;;;;;;7.44;100.00;102042.44;5032454;28;20537;-80
2022/02/02 08:58:37;;;;;;;10.05;3.60;;;;;;;7.55;100.00;102052.19;4990809;28;20054;-80
2022/02/02 09:01:09;;;;;;;14.95;4.53;;;;;;;7.55;100.00;102054.84;5024055;28;20061;-80
2022/02/02 09:06:28;;;;;;;20.88;4.32;;;;;;;7.64;100.00;102073.41;4959171;28;20086;-80
2022/02/02 09:09:09;;;;;;;15.05;4.80;;;;;;;7.63;100.00;102074.31;5032560;28;20115;-81
2022/02/02 09:23:57;;;;;;;19.23;4.45;;;;;;;7.81;100.00;102078.72;5032323;28;20047;-80
2022/02/02 09:32:26;;;;;;;13.32;3.80;;;;;;;7.88;100.00;102091.09;5035131;28;20080;-78
2022/02/02 09:34:55;;;;;;;12.68;4.63;;;;;;;7.91;100.00;102093.78;5035392;28;20056;-78
2022/02/02 09:37:24;;;;;;;15.68;3.90;;;;;;;7.95;100.00;102084.94;5035766;28;20137;-79
2022/02/02 09:40:03;;;;;;;14.00;4.15;;;;;;;7.98;100.00;102087.56;5035389;28;20596;-78
2022/02/02 09:42:33;;;;;;;16.38;4.15;;;;;;;7.98;100.00;102092.88;5036346;28;20068;-77
2022/02/02 09:45:08;;;;;;;14.55;4.22;;;;;;;7.99;100.00;102099.97;5034983;28;20080;-79
2022/02/02 09:47:45;;;;;;;15.60;4.57;;;;;;;8.07;100.00;102102.63;5035616;28;20049;-78
2022/02/02 09:50:22;;;;;;;10.48;3.85;;;;;;;8.13;100.00;102093.75;5035765;28;20128;-79
2022/02/02 09:52:56;;;;;;;13.70;4.05;;;;;;;8.09;100.00;102110.56;5035541;28;20517;-78
2022/02/02 09:55:52;;;;;;;12.60;4.20;;;;;;;8.14;100.00;102106.13;5035294;28;20486;-78
2022/02/02 09:58:44;;;;;;;14.02;3.97;;;;;;;8.23;100.00;102107.00;5035385;28;20053;-79
2022/02/02 10:01:29;;;;;;;16.23;4.20;;;;;;;8.28;100.00;102108.78;5035736;28;20061;-79
2022/02/02 10:04:25;;;;;;;14.73;3.72;;;;;;;8.30;100.00;102125.63;5035312;28;20045;-78
2022/02/02 10:07:25;;;;;;;13.93;3.58;;;;;;;8.22;100.00;102123.88;5035586;28;20046;-78
2022/02/02 10:10:18;;;;;;;10.70;3.30;;;;;;;8.27;100.00;102139.78;5035420;28;20077;-79
2022/02/02 10:13:05;;;;;;;12.27;3.95;;;;;;;8.34;100.00;102136.25;5035398;28;20068;-79
2022/02/02 10:15:57;;;;;;;12.75;4.57;;;;;;;8.36;100.00;102147.78;5035284;28;20065;-78
2022/02/02 10:18:30;;;;;;;13.18;3.83;;;;;;;8.43;100.00;102145.13;5035258;28;20089;-79
2022/02/02 10:21:00;;;;;;;13.65;3.78;;;;;;;8.40;100.00;102144.22;5035157;28;20057;-79
2022/02/02 10:23:30;;;;;;;20.00;4.88;;;;;;;8.44;100.00;102163.72;5035509;28;20553;-78
2022/02/02 10:26:14;;;;;;;16.40;4.25;;;;;;;8.37;100.00;102159.28;5035399;28;20077;-78
2022/02/02 10:29:09;;;;;;;14.73;3.60;;;;;;;8.44;100.00;102165.53;5035022;28;20104;-80
2022/02/02 10:32:00;;;;;;;15.35;4.10;;;;;;;8.40;100.00;102160.16;5035168;28;20068;-80
2022/02/02 10:34:28;;;;;;;11.15;4.53;;;;;;;8.38;100.00;102167.28;5034174;28;20085;-81
2022/02/02 10:37:21;;;;;;;13.25;4.15;;;;;;;8.37;100.00;102181.44;5034197;28;20470;-78
2022/02/02 10:39:49;;;;;;;11.20;3.97;;;;;;;8.40;100.00;102175.25;5033887;28;20068;-79
2022/02/02 10:42:36;;;;;;;16.63;5.50;;;;;;;8.38;100.00;102177.03;5032437;28;20099;-76
2022/02/02 10:45:21;;;;;;;14.68;5.13;;;;;;;8.44;100.00;102187.69;5033945;28;20049;-79
2022/02/02 10:47:57;;;;;;;13.38;3.70;;;;;;;8.60;100.00;102178.78;5033960;28;20057;-78
2022/02/02 10:50:31;;;;;;;13.45;4.82;;;;;;;8.60;100.00;102172.59;5034163;28;20139;-79
2022/02/02 10:53:27;;;;;;;15.38;4.35;;;;;;;8.71;100.00;102177.88;5033670;28;20049;-77
2022/02/02 10:56:17;;;;;;;21.02;4.80;;;;;;;8.71;100.00;102172.53;5034193;28;20144;-79
2022/02/02 11:07:26;;;;;;;15.98;4.93;;;;;;;8.92;100.00;102177.81;5034065;28;20085;-81
2022/02/02 11:09:56;;;;;;;13.43;4.60;;;;;;;8.95;100.00;102176.88;5033872;28;20099;-81
2022/02/02 11:12:32;;;;;;;12.05;4.35;;;;;;;9.01;100.00;102189.28;5033812;28;20081;-81
2022/02/02 11:15:15;;;;;;;14.80;4.32;;;;;;;8.95;100.00;102182.22;5034206;28;20056;-78
2022/02/02 11:17:56;;;;;;;18.02;5.00;;;;;;;9.09;100.00;102164.41;5033899;28;20046;-81
2022/02/02 11:20:25;;;;;;;13.30;5.78;;;;;;;9.09;100.00;102174.16;5034041;28;20115;-80
2022/02/02 11:22:54;;;;;;;14.27;4.25;;;;;;;9.09;100.00;102168.84;5034228;28;20115;-80
2022/02/02 11:25:50;;;;;;;13.48;4.72;;;;;;;9.21;100.00;102170.56;5033493;28;20049;-79
2022/02/02 11:28:27;;;;;;;12.85;3.95;;;;;;;9.26;100.00;102171.41;5033553;28;20077;-79
2022/02/02 11:31:19;;;;;;;11.60;4.10;;;;;;;9.23;100.00;102182.09;5033771;28;20102;-79
2022/02/02 11:33:52;;;;;;;10.57;4.47;;;;;;;9.02;100.00;102175.97;5033387;28;20053;-79
2022/02/02 11:36:30;;;;;;;13.85;4.78;;;;;;;8.89;100.00;102182.25;5033420;28;20096;-79
2022/02/02 11:39:00;;;;;;;13.60;4.40;;;;;;;8.83;100.00;102185.81;5032445;28;20045;-79
2022/02/02 11:44:21;;;;;;;13.15;4.85;;;;;;;8.81;100.00;102176.94;5030704;28;20450;-78
2022/02/02 11:46:55;;;;;;;10.43;4.47;;;;;;;8.77;100.00;102173.41;5032096;28;20052;-78
2022/02/02 11:49:49;;;;;;;13.10;4.85;;;;;;;8.76;100.00;102168.97;5032140;28;20524;-79
2022/02/02 11:52:49;;;;;;;14.07;4.20;;;;;;;8.82;100.00;102173.41;5032290;28;20092;-79
2022/02/02 11:55:46;;;;;;;14.18;4.22;;;;;;;8.96;100.00;102189.31;5032448;28;20061;-79
2022/02/02 11:58:31;;;;;;;14.65;4.07;;;;;;;8.99;100.00;102178.66;5032925;28;20059;-79
2022/02/02 12:01:07;;;;;;;13.18;4.18;;;;;;;8.95;100.00;102171.56;5033022;28;20136;-80
2022/02/02 12:03:55;;;;;;;11.20;3.78;;;;;;;8.87;100.00;102178.69;5032759;28;20049;-80
2022/02/02 12:09:23;;;;;;;20.90;4.40;;;;;;;8.96;100.00;102178.69;5033133;28;20045;-80
2022/02/02 12:48:57;;;;;;;9.88;3.60;;;;;;;9.04;100.00;102141.34;5032869;28;20478;-71
2022/02/02 12:57:19;;;;;;;14.02;3.78;;;;;;;9.11;100.00;102145.78;5031815;28;20046;-72
2022/02/02 13:00:06;;;;;;;9.10;3.42;;;;;;;9.12;100.00;102148.41;5031792;28;20049;-72
2022/02/02 13:02:39;;;;;;;11.05;3.65;;;;;;;9.08;100.00;102157.31;5030103;28;20185;-71
2022/02/02 13:05:16;;;;;;;12.55;4.15;;;;;;;9.13;100.00;102157.28;5031299;28;20076;-73
2022/02/02 13:07:57;;;;;;;13.38;3.95;;;;;;;9.20;100.00;102148.38;5035005;28;20064;-72
2022/02/02 13:10:30;;;;;;;9.63;3.60;;;;;;;9.27;100.00;102149.22;5033694;28;20052;-72
2022/02/02 13:13:08;;;;;;;9.63;3.97;;;;;;;9.15;100.00;102156.38;5035193;28;20045;-72
2022/02/02 13:15:46;;;;;;;14.60;4.00;;;;;;;9.13;100.00;102151.97;5034884;28;20107;-72
2022/02/02 13:18:22;;;;;;;13.52;4.13;;;;;;;9.03;100.00;102155.56;5034976;28;20088;-72
2022/02/02 13:21:06;;;;;;;11.68;3.78;;;;;;;9.15;100.00;102151.06;5034480;28;20091;-72
2022/02/02 13:23:45;;;;;;;9.30;4.28;;;;;;;9.08;100.00;102159.09;5035284;28;20081;-72
2022/02/02 13:26:28;;;;;;;12.80;3.78;;;;;;;9.12;100.00;102158.19;5034800;28;20054;-71
2022/02/02 13:29:08;;;;;;;13.80;4.10;;;;;;;9.15;100.00;102159.03;5034960;28;20053;-71
2022/02/02 13:31:46;;;;;;;14.20;4.25;;;;;;;9.15;100.00;102150.19;5035124;28;20041;-71
2022/02/02 13:34:25;;;;;;;11.10;3.65;;;;;;;9.16;100.00;102152.84;5035783;28;20057;-81
2022/02/02 13:37:21;;;;;;;11.93;4.95;;;;;;;9.30;100.00;102157.22;5035580;28;20045;-81
2022/02/02 13:42:48;;;;;;;10.75;3.35;;;;;;;9.25;100.00;102159.00;5035152;28;20080;-82
2022/02/02 13:48:48;;;;;;;10.57;3.88;;;;;;;9.17;100.00;102151.03;5035041;28;20132;-72
2022/02/02 13:51:40;;;;;;;14.23;4.20;;;;;;;9.21;100.00;102152.81;5033595;28;20447;-73
2022/02/02 13:54:44;;;;;;;9.32;3.22;;;;;;;9.14;100.00;102157.28;5034740;28;20064;-73
2022/02/02 14:00:56;;;;;;;11.18;3.42;;;;;;;9.25;100.00;102162.56;5034152;28;20076;-71
2022/02/02 14:06:36;;;;;;;11.50;3.10;;;;;;;9.35;100.00;102174.91;5034465;28;20049;-72
2022/02/02 14:09:17;;;;;;;9.98;4.65;;;;;;;9.26;100.00;102172.31;5034324;28;20115;-71
2022/02/02 14:31:56;;;;;;;12.32;3.15;;;;;;;9.16;100.00;102192.78;5033847;28;20053;-72
2022/02/02 14:34:50;;;;;;;6.10;2.95;;;;;;;9.27;100.00;102198.03;5034044;28;20073;-71
2022/02/02 14:37:31;;;;;;;6.70;2.50;;;;;;;9.19;100.00;102193.66;5032801;28;20148;-71
2022/02/02 14:40:24;;;;;;;6.50;2.40;;;;;;;9.18;100.00;102195.44;5033158;28;20049;-72
2022/02/02 14:42:56;;;;;;;7.95;2.90;;;;;;;9.12;100.00;102201.66;5032326;28;20100;-73
2022/02/02 14:45:32;;;;;;;6.50;3.20;;;;;;;9.06;100.00;102200.78;5033876;28;20049;-72
2022/02/02 14:48:07;;;;;;;11.50;3.47;;;;;;;9.01;100.00;102206.16;5033678;28;20397;-73
2022/02/02 14:50:49;;;;;;;13.90;3.40;;;;;;;9.03;100.00;102203.50;5033316;28;20512;-74
2022/02/02 14:53:47;;;;;;;10.93;3.55;;;;;;;9.12;100.00;102211.44;5032177;28;20145;-72
2022/02/02 15:23:44;;;;;;;8.95;2.53;;;;;;;8.92;100.00;102187.53;5031709;28;20053;-71
2022/02/02 15:28:54;;;;;;;9.07;2.53;;;;;;;8.85;100.00;102196.44;5032287;28;20057;-73
2022/02/02 15:31:46;;;;;;;8.88;3.05;;;;;;;8.79;100.00;102195.59;5031577;28;20045;-73
2022/02/02 15:34:30;;;;;;;10.02;2.78;;;;;;;8.68;100.00;102189.38;5033082;28;20129;-80
2022/02/02 15:39:56;;;;;;;8.60;2.22;;;;;;;8.62;100.00;102178.78;5034289;28;20057;-79
2022/02/02 15:42:38;;;;;;;10.38;2.63;;;;;;;8.65;100.00;102180.53;5033255;28;20053;-81
2022/02/02 15:59:07;;;;;;;11.52;3.30;;;;;;;8.52;100.00;102174.38;5033070;28;20164;-79
2022/02/02 16:04:25;;;;;;;11.10;3.40;;;;;;;8.50;100.00;102179.69;5033411;28;20049;-79
2022/02/02 16:06:55;;;;;;;9.73;3.40;;;;;;;8.39;100.00;102179.69;5033464;28;20057;-80
2022/02/02 16:09:30;;;;;;;12.35;3.70;;;;;;;8.41;100.00;102179.66;5033558;28;20482;-79
2022/02/02 16:12:11;;;;;;;8.95;3.47;;;;;;;8.33;100.00;102176.16;5033441;28;20494;-79
2022/02/02 16:14:44;;;;;;;10.68;3.72;;;;;;;8.26;100.00;102174.38;5033420;28;20056;-80
2022/02/02 16:37:40;;;;;;;10.55;3.05;;;;;;;8.06;100.00;102177.94;5031871;28;20053;-71
2022/02/02 16:40:31;;;;;;;8.50;2.80;;;;;;;8.07;100.00;102184.13;5033014;28;20068;-72
2022/02/02 16:43:35;;;;;;;9.95;3.00;;;;;;;8.08;100.00;102185.91;5034085;28;20467;-72
2022/02/02 16:49:36;;;;;;;8.18;3.33;;;;;;;8.12;100.00;102195.66;5035455;28;20075;-73
2022/02/02 16:52:34;;;;;;;9.27;3.72;;;;;;;8.10;100.00;102202.75;5035879;28;20183;-72
2022/02/02 17:41:14;;;;;;;18.58;8.40;;;;;;;7.80;100.00;102178.81;5034859;28;20049;-71
2022/02/02 17:44:48;;;;;;;18.42;9.00;;;;;;;7.80;100.00;102183.25;5033692;28;20169;-70
2022/02/02 18:03:53;;;;;;;28.23;11.15;;;;;;;7.70;100.00;102192.97;5034303;28;20076;-71
2022/02/02 18:21:06;;;;;;;28.58;12.10;;;;;;;7.54;100.00;102183.19;5010631;28;20132;-81
2022/02/02 18:23:43;;;;;;;27.77;11.38;;;;;;;7.55;100.00;102180.56;5035749;28;20076;-79
2022/02/02 18:26:18;;;;;;;28.75;11.13;;;;;;;7.58;100.00;102185.00;5035179;28;20072;-78
2022/02/02 18:28:54;;;;;;;23.25;9.73;;;;;;;7.64;100.00;102179.69;5035628;28;20095;-78
2022/02/02 18:31:37;;;;;;;21.98;9.10;;;;;;;7.62;100.00;102173.47;5035421;28;20050;-77
2022/02/02 18:34:21;;;;;;;24.38;9.85;;;;;;;7.61;100.00;102171.69;5035827;28;20053;-77
2022/02/02 18:36:59;;;;;;;23.42;9.70;;;;;;;7.64;100.00;102187.66;5034634;28;20061;-79
2022/02/02 18:46:21;;;;;;;26.42;9.63;;;;;;;7.67;100.00;102190.31;4993150;28;20090;-77
2022/02/02 18:49:16;;;;;;;29.33;10.60;;;;;;;7.64;100.00;102188.56;5034593;28;20152;-76
2022/02/02 18:52:22;;;;;;;27.52;10.68;;;;;;;7.66;100.00;102191.19;5034625;28;20091;-77
2022/02/02 18:55:21;;;;;;;23.38;9.43;;;;;;;7.67;100.00;102179.69;5035170;28;20047;-78
2022/02/02 18:58:00;;;;;;;28.80;13.27;;;;;;;7.63;100.00;102183.25;5034569;28;20053;-76
2022/02/02 19:00:44;;;;;;;28.92;11.38;;;;;;;7.62;100.00;102181.44;5034657;28;20053;-77
2022/02/02 20:05:38;;;;;;;24.05;10.05;;;;;;;7.58;100.00;102156.66;5032150;28;20049;-69
2022/02/02 20:11:31;;;;;;;23.92;11.52;;;;;;;7.60;100.00;102160.19;5031829;28;20133;-70
2022/02/02 20:17:26;;;;;;;21.58;9.00;;;;;;;7.60;100.00;102151.34;5031606;28;20092;-69
2022/02/02 20:20:18;;;;;;;20.95;8.15;;;;;;;7.56;100.00;102147.81;5030416;28;20053;-69
2022/02/02 20:23:13;;;;;;;19.55;8.05;;;;;;;7.56;100.00;102146.91;5032104;28;20400;-70
2022/02/02 20:26:10;;;;;;;14.90;6.72;;;;;;;7.58;100.00;102138.06;5030970;28;20136;-71
2022/02/02 20:31:52;;;;;;;19.55;7.10;;;;;;;7.60;100.00;102154.00;5031850;28;20045;-70
2022/02/02 20:34:32;;;;;;;14.02;6.97;;;;;;;7.62;100.00;102154.88;5031730;28;20139;-70